createdAt,value
2023-03-07T00:01:34.558Z,2.16
2023-03-07T00:04:01.896Z,2.16
2023-03-07T00:06:29.322Z,2.28
2023-03-07T00:09:01.990Z,2.23
2023-03-07T00:11:30.056Z,2.33
2023-03-07T00:13:57.352Z,2.35
2023-03-07T00:16:25.820Z,2.37
2023-03-07T00:18:54.451Z,2.25
2023-03-07T00:21:23.112Z,2.20
2023-03-07T00:23:52.861Z,2.10
2023-03-07T00:26:23.419Z,2.13
2023-03-07T00:28:52.717Z,2.18
2023-03-07T00:31:21.111Z,2.13
2023-03-07T00:33:48.325Z,2.00
2023-03-07T00:36:19.722Z,2.17
2023-03-07T00:38:47.912Z,2.14
2023-03-07T00:41:33.006Z,2.21
2023-03-07T00:44:00.104Z,2.08
2023-03-07T00:46:27.356Z,2.12
2023-03-07T00:48:54.935Z,2.02
2023-03-07T00:51:23.874Z,2.13
2023-03-07T00:53:51.741Z,2.11
2023-03-07T00:56:25.218Z,1.96
2023-03-07T00:58:53.160Z,2.04
2023-03-07T01:01:24.242Z,1.94
2023-03-07T01:03:54.622Z,1.99
2023-03-07T01:06:26.201Z,2.01
2023-03-07T01:08:55.676Z,1.86
2023-03-07T01:11:22.957Z,1.95
2023-03-07T01:13:50.111Z,1.91
2023-03-07T01:16:39.849Z,1.74
2023-03-07T01:19:12.472Z,1.66
2023-03-07T01:21:42.928Z,1.65
2023-03-07T01:24:15.176Z,1.67
2023-03-07T01:26:43.010Z,1.57
2023-03-07T01:29:11.821Z,1.54
2023-03-07T01:31:38.916Z,1.45
2023-03-07T01:34:06.553Z,1.49
2023-03-07T01:36:35.947Z,1.48
2023-03-07T01:39:17.171Z,1.40
2023-03-07T01:41:45.728Z,1.41
2023-03-07T01:44:25.939Z,1.28
2023-03-07T01:47:00.709Z,1.17
2023-03-07T01:49:42.811Z,1.16
2023-03-07T01:52:09.851Z,1.11
2023-03-07T01:54:42.831Z,1.09
2023-03-07T01:57:10.594Z,1.02
2023-03-07T01:59:45.716Z,0.98
2023-03-07T02:02:18.007Z,0.98
2023-03-07T02:04:57.250Z,0.94
2023-03-07T02:07:28.523Z,0.90
2023-03-07T02:09:57.192Z,0.86
2023-03-07T02:12:24.448Z,0.76
2023-03-07T02:14:52.387Z,0.81
2023-03-07T02:17:19.902Z,0.82
2023-03-07T02:20:05.803Z,0.66
2023-03-07T02:22:32.922Z,0.62
2023-03-07T02:25:14.484Z,0.59
2023-03-07T02:27:42.973Z,0.58
2023-03-07T02:30:11.033Z,0.55
2023-03-07T02:32:38.258Z,0.50
2023-03-07T02:35:23.436Z,0.45
2023-03-07T02:37:57.539Z,0.51
2023-03-07T02:40:29.578Z,0.48
2023-03-07T02:43:01.333Z,0.33
2023-03-07T02:45:28.431Z,0.42
2023-03-07T02:47:55.461Z,0.40
2023-03-07T02:50:22.487Z,0.37
2023-03-07T02:52:50.012Z,0.35
2023-03-07T02:55:17.174Z,0.26
2023-03-07T02:57:44.169Z,0.20
2023-03-07T03:00:12.561Z,0.26
2023-03-07T03:02:39.654Z,0.24
2023-03-07T03:05:07.649Z,0.19
2023-03-07T03:07:34.689Z,0.17
2023-03-07T03:10:01.777Z,0.15
2023-03-07T03:12:28.775Z,0.08
2023-03-07T03:14:55.802Z,0.06
2023-03-07T03:17:24.025Z,0.08
2023-03-07T03:19:51.112Z,0.13
2023-03-07T03:22:18.120Z,0.12
2023-03-07T03:24:45.196Z,0.10
2023-03-07T03:27:12.257Z,-0.03
2023-03-07T03:29:39.561Z,-0.10
2023-03-07T03:32:07.230Z,-0.11
2023-03-07T03:34:34.305Z,-0.07
2023-03-07T03:37:01.361Z,-0.08
2023-03-07T03:39:29.166Z,-0.08
2023-03-07T03:41:57.135Z,-0.04
2023-03-07T03:44:24.404Z,-0.04
2023-03-07T03:46:52.086Z,-0.02
2023-03-07T03:49:19.790Z,-0.03
2023-03-07T03:51:46.848Z,-0.05
2023-03-07T03:54:13.874Z,-0.05
2023-03-07T03:56:41.200Z,-0.09
2023-03-07T03:59:08.216Z,-0.13
2023-03-07T04:01:35.410Z,-0.03
2023-03-07T04:04:02.573Z,-0.09
2023-03-07T04:06:33.260Z,-0.17
2023-03-07T04:09:00.941Z,-0.16
2023-03-07T04:11:27.957Z,-0.10
2023-03-07T04:13:55.069Z,-0.12
2023-03-07T04:16:25.269Z,-0.07
2023-03-07T04:18:52.979Z,-0.07
2023-03-07T04:21:21.407Z,-0.06
2023-03-07T04:23:50.457Z,-0.04
2023-03-07T04:26:17.575Z,-0.08
2023-03-07T04:28:49.458Z,-0.04
2023-03-07T04:31:23.613Z,-0.07
2023-03-07T04:33:53.092Z,-0.08
2023-03-07T04:36:20.940Z,-0.18
2023-03-07T04:38:49.682Z,-0.12
2023-03-07T04:41:20.096Z,-0.16
2023-03-07T04:43:47.547Z,-0.25
2023-03-07T04:46:16.925Z,-0.27
2023-03-07T04:48:44.917Z,-0.35
2023-03-07T04:51:12.570Z,-0.38
2023-03-07T04:53:39.760Z,-0.44
2023-03-07T04:56:08.462Z,-0.42
2023-03-07T04:58:36.919Z,-0.39
2023-03-07T05:01:05.785Z,-0.38
2023-03-07T05:03:34.140Z,-0.36
2023-03-07T05:06:08.075Z,-0.46
2023-03-07T05:08:35.682Z,-0.46
2023-03-07T05:11:03.201Z,-0.52
2023-03-07T05:13:30.638Z,-0.53
2023-03-07T05:15:59.405Z,-0.53
2023-03-07T05:18:27.415Z,-0.48
2023-03-07T05:20:54.446Z,-0.61
2023-03-07T05:23:21.976Z,-0.63
2023-03-07T05:25:49.026Z,-0.59
2023-03-07T05:28:17.077Z,-0.61
2023-03-07T05:30:46.345Z,-0.53
2023-03-07T05:33:14.958Z,-0.56
2023-03-07T05:35:42.208Z,-0.49
2023-03-07T05:38:09.597Z,-0.51
2023-03-07T05:40:36.671Z,-0.49
2023-03-07T05:43:04.027Z,-0.52
2023-03-07T05:45:31.166Z,-0.51
2023-03-07T05:47:58.233Z,-0.49
2023-03-07T05:50:25.453Z,-0.46
2023-03-07T05:52:53.145Z,-0.45
2023-03-07T05:55:20.532Z,-0.47
2023-03-07T05:57:47.609Z,-0.46
2023-03-07T06:00:16.043Z,-0.38
2023-03-07T06:02:43.365Z,-0.44
2023-03-07T06:05:10.534Z,-0.41
2023-03-07T06:07:37.531Z,-0.43
2023-03-07T06:10:05.110Z,-0.49
2023-03-07T06:12:32.110Z,-0.43
2023-03-07T06:14:59.147Z,-0.40
2023-03-07T06:17:26.151Z,-0.40
2023-03-07T06:19:53.234Z,-0.23
2023-03-07T06:22:20.436Z,-0.15
2023-03-07T06:24:47.503Z,-0.06
2023-03-07T06:27:14.517Z,0.04
2023-03-07T06:29:41.608Z,0.16
2023-03-07T06:32:08.655Z,0.15
2023-03-07T06:34:36.801Z,0.26
2023-03-07T06:37:04.023Z,0.22
2023-03-07T06:39:31.560Z,0.24
2023-03-07T06:41:58.720Z,0.33
2023-03-07T06:44:25.820Z,0.37
2023-03-07T06:46:52.863Z,0.27
2023-03-07T06:49:20.002Z,0.20
2023-03-07T06:51:47.042Z,0.17
2023-03-07T06:54:14.163Z,0.28
2023-03-07T06:56:43.028Z,0.35
2023-03-07T06:59:11.283Z,0.44
2023-03-07T07:01:38.561Z,0.33
2023-03-07T07:04:05.818Z,0.54
2023-03-07T07:06:32.931Z,0.81
2023-03-07T07:09:00.186Z,1.13
2023-03-07T07:11:27.808Z,1.52
2023-03-07T07:13:54.874Z,1.53
2023-03-07T07:16:21.940Z,1.39
2023-03-07T07:18:54.520Z,1.54
2023-03-07T07:21:21.677Z,1.99
2023-03-07T07:23:48.780Z,2.40
2023-03-07T07:26:15.904Z,3.04
2023-03-07T07:28:42.915Z,3.46
2023-03-07T07:31:10.062Z,3.47
2023-03-07T07:33:37.122Z,4.97
2023-03-07T07:36:04.657Z,5.19
2023-03-07T07:38:31.749Z,5.00
2023-03-07T07:40:58.933Z,5.33
2023-03-07T07:43:26.137Z,5.32
2023-03-07T07:45:53.151Z,5.86
2023-03-07T07:48:20.860Z,7.61
2023-03-07T07:50:48.010Z,9.12
2023-03-07T07:53:17.139Z,9.50
2023-03-07T07:55:45.758Z,9.71
2023-03-07T07:58:12.779Z,9.21
2023-03-07T08:00:39.802Z,8.76
2023-03-07T08:03:07.251Z,8.59
2023-03-07T08:05:34.378Z,9.40
2023-03-07T08:08:01.384Z,10.39
2023-03-07T08:10:28.434Z,11.33
2023-03-07T08:12:55.578Z,11.91
2023-03-07T08:15:22.678Z,12.49
2023-03-07T08:17:51.351Z,12.97
2023-03-07T08:20:22.396Z,12.93
2023-03-07T08:22:50.786Z,13.40
2023-03-07T08:25:22.503Z,13.89
2023-03-07T08:27:54.893Z,14.63
2023-03-07T08:30:28.487Z,14.81
2023-03-07T08:32:56.943Z,15.05
2023-03-07T08:35:25.446Z,14.24
2023-03-07T08:38:00.759Z,14.31
2023-03-07T08:40:32.163Z,14.19
2023-03-07T08:42:59.955Z,13.29
2023-03-07T08:45:27.192Z,13.64
2023-03-07T08:47:55.924Z,14.31
2023-03-07T08:50:26.654Z,14.80
2023-03-07T08:52:54.102Z,15.44
2023-03-07T08:55:21.254Z,15.59
2023-03-07T08:57:48.260Z,15.66
2023-03-07T09:00:16.020Z,15.87
2023-03-07T09:02:43.269Z,16.34
2023-03-07T09:05:10.870Z,16.60
2023-03-07T09:07:37.895Z,16.94
2023-03-07T09:10:05.959Z,16.87
2023-03-07T09:12:34.726Z,16.48
2023-03-07T09:15:01.760Z,16.74
2023-03-07T09:17:28.823Z,16.81
2023-03-07T09:19:56.608Z,16.98
2023-03-07T09:22:23.612Z,17.08
2023-03-07T09:24:50.636Z,17.50
2023-03-07T09:27:17.644Z,17.68
2023-03-07T09:29:45.043Z,17.68
2023-03-07T09:32:12.215Z,17.89
2023-03-07T09:34:39.424Z,18.26
2023-03-07T09:37:06.484Z,18.47
2023-03-07T09:39:33.823Z,18.30
2023-03-07T09:42:35.555Z,18.01
2023-03-07T09:45:27.478Z,18.00
2023-03-07T09:48:40.862Z,18.20
2023-03-07T09:51:27.320Z,18.31
2023-03-07T09:54:01.500Z,18.41
2023-03-07T09:56:38.351Z,18.22
2023-03-07T09:59:35.416Z,18.24
2023-03-07T10:02:12.978Z,18.66
2023-03-07T10:04:56.377Z,18.58
2023-03-07T10:07:28.089Z,18.38
2023-03-07T10:10:01.703Z,18.64
2023-03-07T10:13:02.407Z,18.48
2023-03-07T10:15:52.347Z,18.19
2023-03-07T10:18:54.247Z,16.54
2023-03-07T10:21:59.433Z,16.01
2023-03-07T10:24:48.756Z,15.33
2023-03-07T10:27:16.414Z,14.66
2023-03-07T10:29:50.895Z,13.67
2023-03-07T10:32:36.231Z,13.26
2023-03-07T10:35:12.304Z,12.94
2023-03-07T10:38:10.851Z,12.46
2023-03-07T10:40:57.825Z,12.45
2023-03-07T10:43:30.006Z,12.60
2023-03-07T10:46:25.133Z,12.15
2023-03-07T10:49:09.973Z,11.68
2023-03-07T10:52:24.491Z,11.31
2023-03-07T10:54:51.487Z,10.96
2023-03-07T10:57:26.273Z,10.70
2023-03-07T10:59:53.324Z,10.39
2023-03-07T11:02:37.263Z,10.58
2023-03-07T11:05:32.709Z,10.67
2023-03-07T11:08:00.756Z,10.65
2023-03-07T11:10:40.241Z,11.11
2023-03-07T11:13:22.361Z,11.03
2023-03-07T11:15:49.867Z,11.40
2023-03-07T11:18:41.308Z,11.25
2023-03-07T11:21:32.690Z,11.64
2023-03-07T11:24:05.806Z,11.51
2023-03-07T11:26:40.785Z,11.49
2023-03-07T11:29:11.555Z,11.31
2023-03-07T11:31:52.776Z,11.26
2023-03-07T11:34:52.494Z,11.00
2023-03-07T11:38:01.780Z,11.25
2023-03-07T11:41:09.944Z,11.18
2023-03-07T11:44:16.667Z,11.15
2023-03-07T11:47:08.636Z,11.00
2023-03-07T11:50:06.574Z,10.65
2023-03-07T11:53:16.507Z,10.75
2023-03-07T11:56:15.163Z,10.77
2023-03-07T11:59:09.921Z,11.12
2023-03-07T12:01:55.963Z,11.12
2023-03-07T12:04:47.157Z,10.82
2023-03-07T12:07:39.171Z,10.74
2023-03-07T12:10:38.532Z,10.65
2023-03-07T12:13:31.668Z,10.70
2023-03-07T12:16:13.944Z,10.69
2023-03-07T12:19:26.055Z,10.64
2023-03-07T12:22:27.375Z,10.75
2023-03-07T12:25:24.790Z,10.93
2023-03-07T12:28:21.380Z,11.00
2023-03-07T12:31:29.145Z,10.74
2023-03-07T12:34:19.371Z,10.74
2023-03-07T12:36:49.121Z,10.70
2023-03-07T12:39:32.298Z,10.51
2023-03-07T12:42:33.056Z,10.51
2023-03-07T12:45:18.807Z,10.48
2023-03-07T12:47:57.865Z,10.41
2023-03-07T12:50:46.470Z,10.32
2023-03-07T12:53:48.272Z,10.25
2023-03-07T12:56:57.126Z,10.24
2023-03-07T12:59:24.806Z,10.16
2023-03-07T13:02:23.432Z,10.25
2023-03-07T13:04:50.618Z,10.25
2023-03-07T13:07:32.313Z,10.09
2023-03-07T13:10:04.009Z,10.13
2023-03-07T13:12:36.232Z,9.87
2023-03-07T13:15:23.977Z,9.75
2023-03-07T13:17:50.841Z,9.67
2023-03-07T13:20:43.538Z,9.64
2023-03-07T13:23:25.955Z,9.60
2023-03-07T13:26:01.714Z,9.50
2023-03-07T13:28:46.862Z,9.38
2023-03-07T13:31:16.702Z,9.31
2023-03-07T13:33:44.171Z,9.24
2023-03-07T13:36:38.844Z,9.00
2023-03-07T13:39:38.660Z,9.12
2023-03-07T13:42:26.885Z,8.97
2023-03-07T13:44:55.037Z,8.82
2023-03-07T13:47:44.373Z,8.78
2023-03-07T13:50:35.792Z,8.61
2023-03-07T13:53:16.431Z,8.55
2023-03-07T13:55:48.613Z,8.51
2023-03-07T13:58:43.383Z,8.53
2023-03-07T14:01:49.468Z,8.39
2023-03-07T14:04:38.449Z,8.42
2023-03-07T14:07:21.376Z,8.34
2023-03-07T14:09:57.267Z,8.32
2023-03-07T14:12:56.810Z,8.25
2023-03-07T14:15:45.082Z,8.24
2023-03-07T14:18:17.531Z,8.22
2023-03-07T14:21:12.652Z,8.13
2023-03-07T14:24:23.378Z,8.10
2023-03-07T14:26:56.806Z,7.96
2023-03-07T14:29:29.792Z,7.98
2023-03-07T14:32:01.002Z,8.03
2023-03-07T14:34:34.885Z,8.01
2023-03-07T14:37:07.577Z,7.93
2023-03-07T14:39:51.080Z,7.93
2023-03-07T14:42:28.811Z,7.91
2023-03-07T14:45:26.495Z,7.84
2023-03-07T14:48:42.607Z,7.83
2023-03-07T14:51:20.737Z,7.78
2023-03-07T14:53:49.445Z,7.84
2023-03-07T14:56:32.210Z,7.78
2023-03-07T14:59:03.044Z,7.79
2023-03-07T15:01:36.987Z,7.74
2023-03-07T15:04:22.365Z,7.82
2023-03-07T15:07:04.804Z,7.80
2023-03-07T15:09:33.978Z,7.72
2023-03-07T15:12:28.211Z,7.65
2023-03-07T15:14:59.990Z,7.65
2023-03-07T15:17:38.213Z,7.63
2023-03-07T15:20:21.023Z,7.60
2023-03-07T15:22:48.207Z,7.61
2023-03-07T15:25:24.618Z,7.60
2023-03-07T15:28:16.812Z,7.52
2023-03-07T15:30:53.534Z,7.53
2023-03-07T15:33:20.669Z,7.48
2023-03-07T15:36:09.249Z,7.50
2023-03-07T15:38:36.709Z,9.37
2023-03-07T15:41:26.312Z,10.79
2023-03-07T15:44:18.521Z,11.22
2023-03-07T15:46:55.361Z,11.58
2023-03-07T15:49:37.125Z,12.00
2023-03-07T15:52:05.132Z,12.40
2023-03-07T15:54:40.549Z,10.72
2023-03-07T15:57:24.655Z,9.53
2023-03-07T16:00:07.020Z,9.06
2023-03-07T16:02:43.732Z,8.77
2023-03-07T16:05:19.928Z,8.54
2023-03-07T16:07:47.623Z,8.49
2023-03-07T16:10:14.957Z,8.47
2023-03-07T16:12:46.452Z,8.37
2023-03-07T16:15:16.270Z,8.29
2023-03-07T16:17:44.103Z,8.27
2023-03-07T16:20:17.689Z,8.17
2023-03-07T16:22:44.896Z,8.13
2023-03-07T16:25:11.913Z,7.99
2023-03-07T16:27:40.899Z,8.03
2023-03-07T16:30:15.783Z,7.83
2023-03-07T16:32:43.290Z,7.81
2023-03-07T16:35:36.828Z,7.71
2023-03-07T16:38:04.076Z,7.73
2023-03-07T16:40:32.472Z,7.58
2023-03-07T16:42:59.728Z,7.61
2023-03-07T16:45:32.377Z,7.42
2023-03-07T16:48:02.560Z,7.54
2023-03-07T16:50:33.436Z,7.48
2023-03-07T16:53:00.709Z,7.39
2023-03-07T16:55:31.436Z,7.37
2023-03-07T16:58:02.252Z,7.39
2023-03-07T17:00:29.558Z,7.44
2023-03-07T17:03:00.465Z,7.31
2023-03-07T17:05:29.951Z,7.33
2023-03-07T17:07:58.740Z,7.27
2023-03-07T17:10:27.624Z,7.42
2023-03-07T17:12:57.485Z,7.39
2023-03-07T17:15:30.469Z,7.33
2023-03-07T17:17:59.368Z,7.32
2023-03-07T17:20:27.516Z,7.40
2023-03-07T17:22:54.731Z,7.49
2023-03-07T17:25:22.944Z,7.36
2023-03-07T17:28:14.020Z,7.30
2023-03-07T17:30:44.968Z,7.28
2023-03-07T17:33:12.435Z,7.29
2023-03-07T17:35:39.604Z,7.28
2023-03-07T17:38:07.005Z,7.29
2023-03-07T17:40:34.241Z,7.27
2023-03-07T17:43:01.490Z,7.88
2023-03-07T17:45:28.586Z,8.33
2023-03-07T17:47:56.333Z,8.55
2023-03-07T17:50:24.025Z,7.92
2023-03-07T17:52:53.934Z,7.72
2023-03-07T17:55:22.479Z,7.60
2023-03-07T17:57:49.541Z,7.57
2023-03-07T18:00:20.579Z,7.55
2023-03-07T18:02:47.910Z,7.48
2023-03-07T18:05:14.990Z,7.39
2023-03-07T18:07:42.414Z,7.39
2023-03-07T18:10:11.771Z,7.37
2023-03-07T18:12:39.612Z,7.33
2023-03-07T18:15:15.309Z,7.27
2023-03-07T18:17:48.249Z,7.25
2023-03-07T18:20:20.654Z,7.36
2023-03-07T18:22:48.642Z,7.31
2023-03-07T18:25:17.936Z,7.18
2023-03-07T18:27:45.203Z,7.08
2023-03-07T18:30:14.137Z,7.13
2023-03-07T18:32:41.395Z,7.04
2023-03-07T18:35:09.098Z,7.01
2023-03-07T18:37:36.630Z,7.04
2023-03-07T18:40:04.646Z,6.97
2023-03-07T18:42:31.681Z,6.96
2023-03-07T18:44:58.757Z,6.92
2023-03-07T18:47:25.837Z,6.79
2023-03-07T18:49:52.870Z,6.84
2023-03-07T18:52:19.940Z,6.89
2023-03-07T18:54:49.080Z,6.87
2023-03-07T18:57:16.254Z,6.92
2023-03-07T18:59:43.400Z,6.81
2023-03-07T19:02:10.781Z,6.80
2023-03-07T19:04:37.915Z,6.77
2023-03-07T19:07:04.958Z,6.71
2023-03-07T19:09:32.096Z,6.82
2023-03-07T19:11:59.329Z,6.78
2023-03-07T19:14:26.500Z,6.67
2023-03-07T19:16:53.777Z,6.77
2023-03-07T19:19:21.048Z,6.71
2023-03-07T19:21:48.059Z,6.76
2023-03-07T19:24:15.260Z,6.69
2023-03-07T19:26:43.376Z,6.68
2023-03-07T19:29:12.231Z,6.70
2023-03-07T19:31:40.992Z,6.67
2023-03-07T19:34:08.878Z,6.76
2023-03-07T19:36:37.370Z,6.68
2023-03-07T19:39:05.688Z,6.67
2023-03-07T19:41:32.891Z,6.69
2023-03-07T19:44:01.201Z,6.70
2023-03-07T19:46:28.490Z,6.62
2023-03-07T19:48:56.005Z,6.56
2023-03-07T19:51:26.358Z,6.53
2023-03-07T19:53:57.158Z,6.51
2023-03-07T19:56:30.301Z,6.58
2023-03-07T19:59:00.189Z,6.55
2023-03-07T20:01:29.725Z,6.50
2023-03-07T20:03:57.288Z,6.50
2023-03-07T20:06:30.919Z,6.54
2023-03-07T20:08:59.673Z,6.61
2023-03-07T20:11:35.736Z,6.58
2023-03-07T20:14:05.354Z,6.52
2023-03-07T20:16:34.206Z,6.51
2023-03-07T20:19:05.337Z,6.57
2023-03-07T20:21:34.150Z,6.55
2023-03-07T20:24:01.250Z,6.61
2023-03-07T20:26:37.748Z,6.47
2023-03-07T20:29:08.000Z,6.50
2023-03-07T20:31:36.334Z,6.61
2023-03-07T20:34:03.585Z,6.62
2023-03-07T20:36:36.350Z,6.53
2023-03-07T20:39:08.644Z,6.56
2023-03-07T20:41:35.939Z,6.58
2023-03-07T20:44:06.400Z,6.48
2023-03-07T20:46:35.448Z,6.56
2023-03-07T20:49:03.259Z,6.53
2023-03-07T20:51:34.036Z,6.41
2023-03-07T20:54:13.242Z,6.39
2023-03-07T20:56:42.004Z,6.49
2023-03-07T20:59:12.358Z,6.47
2023-03-07T21:01:39.764Z,6.46
2023-03-07T21:04:11.482Z,6.49
2023-03-07T21:06:43.924Z,6.48
2023-03-07T21:09:13.930Z,6.42
2023-03-07T21:11:45.348Z,6.37
2023-03-07T21:14:14.483Z,6.31
2023-03-07T21:16:43.128Z,6.30
2023-03-07T21:19:11.634Z,6.35
2023-03-07T21:21:39.702Z,6.35
2023-03-07T21:24:07.431Z,6.33
2023-03-07T21:26:36.452Z,6.37
2023-03-07T21:29:04.940Z,6.39
2023-03-07T21:31:34.870Z,6.34
2023-03-07T21:34:06.241Z,6.32
2023-03-07T21:36:34.183Z,6.27
2023-03-07T21:39:04.239Z,6.28
2023-03-07T21:41:31.453Z,6.28
2023-03-07T21:43:59.254Z,6.13
2023-03-07T21:46:26.721Z,6.26
2023-03-07T21:48:54.255Z,6.18
2023-03-07T21:51:21.837Z,6.17
2023-03-07T21:53:48.897Z,6.07
2023-03-07T21:56:17.849Z,6.07
2023-03-07T21:58:49.220Z,6.12
2023-03-07T22:01:26.524Z,6.20
2023-03-07T22:03:58.646Z,6.19
2023-03-07T22:06:26.836Z,6.23
2023-03-07T22:08:54.238Z,6.27
2023-03-07T22:11:21.554Z,6.31
2023-03-07T22:13:48.602Z,6.23
2023-03-07T22:16:21.380Z,6.18
2023-03-07T22:18:56.065Z,6.11
2023-03-07T22:21:27.826Z,6.18
2023-03-07T22:23:58.007Z,5.99
2023-03-07T22:26:25.822Z,5.89
2023-03-07T22:28:53.855Z,5.75
2023-03-07T22:31:21.102Z,5.66
2023-03-07T22:33:48.521Z,5.63
2023-03-07T22:36:15.847Z,5.47
2023-03-07T22:38:43.746Z,5.49
2023-03-07T22:41:15.708Z,5.35
2023-03-07T22:43:43.381Z,5.27
2023-03-07T22:46:11.431Z,5.17
2023-03-07T22:48:39.074Z,5.15
2023-03-07T22:51:15.034Z,5.11
2023-03-07T22:53:42.152Z,5.16
2023-03-07T22:56:19.955Z,5.16
2023-03-07T22:58:47.109Z,5.03
2023-03-07T23:01:20.944Z,5.01
2023-03-07T23:03:49.832Z,4.92
2023-03-07T23:06:18.617Z,5.07
2023-03-07T23:08:47.769Z,4.90
2023-03-07T23:11:16.011Z,4.81
2023-03-07T23:13:43.887Z,4.81
2023-03-07T23:16:15.081Z,4.76
2023-03-07T23:18:43.447Z,4.73
2023-03-07T23:21:14.870Z,4.69
2023-03-07T23:23:42.338Z,4.62
2023-03-07T23:26:09.567Z,4.65
2023-03-07T23:28:36.646Z,4.60
2023-03-07T23:31:04.238Z,4.56
2023-03-07T23:33:31.401Z,4.67
2023-03-07T23:36:01.684Z,4.62
2023-03-07T23:38:28.712Z,4.58
2023-03-07T23:40:58.008Z,4.58
2023-03-07T23:43:25.036Z,4.48
2023-03-07T23:45:52.084Z,4.49
2023-03-07T23:48:19.104Z,4.33
2023-03-07T23:50:49.334Z,4.30
2023-03-07T23:53:16.333Z,4.27
2023-03-07T23:55:43.848Z,4.28
2023-03-07T23:58:10.923Z,4.32
